createdAt,value
2023-03-11T00:00:29.401Z,0.75
2023-03-11T00:02:57.801Z,0.76
2023-03-11T00:05:26.239Z,0.76
2023-03-11T00:07:54.039Z,0.76
2023-03-11T00:10:22.695Z,0.76
2023-03-11T00:12:51.782Z,0.76
2023-03-11T00:15:19.351Z,0.75
2023-03-11T00:17:48.247Z,0.75
2023-03-11T00:20:17.049Z,0.75
2023-03-11T00:22:44.587Z,0.75
2023-03-11T00:25:12.460Z,0.76
2023-03-11T00:27:39.911Z,0.75
2023-03-11T00:30:09.978Z,0.75
2023-03-11T00:32:37.575Z,0.73
2023-03-11T00:35:05.590Z,0.73
2023-03-11T00:37:33.090Z,0.71
2023-03-11T00:40:00.605Z,0.71
2023-03-11T00:42:28.112Z,0.70
2023-03-11T00:44:55.576Z,0.69
2023-03-11T00:47:24.455Z,0.68
2023-03-11T00:49:51.902Z,0.68
2023-03-11T00:52:19.332Z,0.69
2023-03-11T00:54:47.185Z,0.70
2023-03-11T00:57:14.678Z,0.70
2023-03-11T00:59:42.151Z,0.71
2023-03-11T01:02:09.651Z,0.70
2023-03-11T01:04:38.613Z,0.70
2023-03-11T01:07:06.169Z,0.69
2023-03-11T01:09:33.884Z,0.69
2023-03-11T01:12:01.358Z,0.68
2023-03-11T01:14:29.166Z,0.69
2023-03-11T01:16:56.910Z,0.68
2023-03-11T01:19:24.416Z,0.66
2023-03-11T01:21:53.281Z,0.68
2023-03-11T01:24:20.783Z,0.67
2023-03-11T01:26:48.209Z,0.67
2023-03-11T01:29:15.687Z,0.67
2023-03-11T01:31:43.162Z,0.68
2023-03-11T01:34:10.815Z,0.69
2023-03-11T01:36:38.288Z,0.70
2023-03-11T01:39:07.134Z,0.71
2023-03-11T01:41:34.672Z,0.70
2023-03-11T01:44:02.362Z,0.70
2023-03-11T01:46:31.610Z,0.69
2023-03-11T01:48:59.419Z,0.69
2023-03-11T01:51:28.956Z,0.70
2023-03-11T01:53:56.414Z,0.70
2023-03-11T01:56:25.263Z,0.70
2023-03-11T01:58:53.024Z,0.70
2023-03-11T02:01:20.877Z,0.70
2023-03-11T02:03:49.625Z,0.70
2023-03-11T02:06:18.523Z,0.72
2023-03-11T02:08:46.127Z,0.71
2023-03-11T02:11:15.645Z,0.70
2023-03-11T02:13:44.582Z,0.70
2023-03-11T02:16:12.804Z,0.69
2023-03-11T02:18:40.357Z,0.68
2023-03-11T02:21:09.432Z,0.68
2023-03-11T02:23:38.282Z,0.69
2023-03-11T02:26:07.043Z,0.67
2023-03-11T02:28:35.964Z,0.67
2023-03-11T02:31:03.629Z,0.65
2023-03-11T02:33:32.421Z,0.63
2023-03-11T02:35:59.904Z,0.61
2023-03-11T02:38:27.347Z,0.59
2023-03-11T02:40:56.760Z,0.58
2023-03-11T02:43:25.270Z,0.56
2023-03-11T02:45:54.099Z,0.55
2023-03-11T02:48:21.550Z,0.52
2023-03-11T02:50:49.046Z,0.53
2023-03-11T02:53:16.727Z,0.53
2023-03-11T02:55:44.243Z,0.52
2023-03-11T02:58:11.695Z,0.52
2023-03-11T03:00:39.477Z,0.52
2023-03-11T03:03:08.760Z,0.52
2023-03-11T03:05:36.257Z,0.54
2023-03-11T03:08:03.828Z,0.54
2023-03-11T03:10:31.613Z,0.55
2023-03-11T03:12:59.071Z,0.57
2023-03-11T03:15:26.656Z,0.58
2023-03-11T03:17:54.143Z,0.57
2023-03-11T03:20:23.604Z,0.58
2023-03-11T03:22:51.401Z,0.58
2023-03-11T03:25:19.020Z,0.57
2023-03-11T03:27:46.563Z,0.57
2023-03-11T03:30:14.252Z,0.55
2023-03-11T03:32:42.092Z,0.55
2023-03-11T03:35:10.153Z,0.54
2023-03-11T03:37:39.384Z,0.54
2023-03-11T03:40:08.255Z,0.54
2023-03-11T03:42:36.395Z,0.55
2023-03-11T03:45:04.336Z,0.57
2023-03-11T03:47:32.667Z,0.58
2023-03-11T03:50:00.109Z,0.56
2023-03-11T03:52:27.636Z,0.55
2023-03-11T03:54:56.461Z,0.57
2023-03-11T03:57:23.983Z,0.58
2023-03-11T03:59:51.543Z,0.58
2023-03-11T04:02:19.076Z,0.58
2023-03-11T04:04:46.667Z,0.56
2023-03-11T04:07:14.436Z,0.55
2023-03-11T04:09:41.961Z,0.55
2023-03-11T04:12:10.867Z,0.54
2023-03-11T04:14:38.325Z,0.53
2023-03-11T04:17:05.929Z,0.52
2023-03-11T04:19:33.433Z,0.49
2023-03-11T04:22:00.929Z,0.49
2023-03-11T04:24:28.443Z,0.48
2023-03-11T04:26:55.898Z,0.45
2023-03-11T04:31:52.505Z,0.43
2023-03-11T04:34:19.989Z,0.41
2023-03-11T04:36:47.546Z,0.39
2023-03-11T04:39:15.903Z,0.37
2023-03-11T04:41:43.474Z,0.36
2023-03-11T04:44:10.971Z,0.35
2023-03-11T04:46:39.809Z,0.34
2023-03-11T04:49:07.348Z,0.33
2023-03-11T04:51:34.862Z,0.31
2023-03-11T04:54:02.425Z,0.30
2023-03-11T04:56:29.861Z,0.26
2023-03-11T04:58:57.411Z,0.24
2023-03-11T05:01:24.989Z,0.23
2023-03-11T05:03:53.964Z,0.20
2023-03-11T05:06:21.532Z,0.20
2023-03-11T05:08:48.993Z,0.18
2023-03-11T05:11:16.514Z,0.19
2023-03-11T05:13:43.987Z,0.18
2023-03-11T05:16:11.584Z,0.17
2023-03-11T05:18:39.127Z,0.17
2023-03-11T05:21:08.127Z,0.16
2023-03-11T05:23:35.642Z,0.16
2023-03-11T05:26:03.202Z,0.16
2023-03-11T05:28:30.658Z,0.17
2023-03-11T05:30:58.223Z,0.18
2023-03-11T05:33:25.784Z,0.19
2023-03-11T05:35:53.419Z,0.19
2023-03-11T05:38:22.334Z,0.19
2023-03-11T05:40:49.798Z,0.18
2023-03-11T05:43:17.245Z,0.18
2023-03-11T05:45:44.668Z,0.17
2023-03-11T05:48:12.153Z,0.16
2023-03-11T05:50:39.655Z,0.14
2023-03-11T05:53:07.179Z,0.13
2023-03-11T05:55:36.089Z,0.13
2023-03-11T05:58:03.621Z,0.13
2023-03-11T06:00:31.097Z,0.12
2023-03-11T06:02:58.643Z,0.13
2023-03-11T06:05:26.266Z,0.13
2023-03-11T06:07:53.860Z,0.11
2023-03-11T06:10:21.404Z,0.11
2023-03-11T06:12:50.490Z,0.10
2023-03-11T06:15:18.093Z,0.09
2023-03-11T06:17:45.767Z,0.10
2023-03-11T06:20:13.495Z,0.10
2023-03-11T06:22:41.005Z,0.10
2023-03-11T06:25:09.042Z,0.10
2023-03-11T06:27:36.655Z,0.11
2023-03-11T06:30:06.103Z,0.11
2023-03-11T06:32:34.957Z,0.11
2023-03-11T06:35:02.450Z,0.10
2023-03-11T06:37:29.985Z,0.09
2023-03-11T06:39:57.510Z,0.08
2023-03-11T06:42:25.043Z,0.09
2023-03-11T06:44:52.545Z,0.08
2023-03-11T06:47:21.391Z,0.06
2023-03-11T06:49:49.013Z,0.07
2023-03-11T06:52:16.504Z,0.08
2023-03-11T06:54:44.081Z,0.08
2023-03-11T06:57:11.683Z,0.08
2023-03-11T06:59:39.196Z,0.10
2023-03-11T07:02:06.952Z,0.10
2023-03-11T07:04:35.808Z,0.11
2023-03-11T07:07:03.339Z,0.13
2023-03-11T07:09:30.849Z,0.17
2023-03-11T07:11:58.384Z,0.19
2023-03-11T07:14:25.902Z,0.20
2023-03-11T07:16:53.446Z,0.24
2023-03-11T07:19:21.208Z,0.27
2023-03-11T07:21:50.067Z,0.30
2023-03-11T07:24:17.846Z,0.34
2023-03-11T07:26:45.388Z,0.37
2023-03-11T07:29:12.887Z,0.40
2023-03-11T07:31:40.507Z,0.43
2023-03-11T07:34:11.180Z,0.47
2023-03-11T07:36:40.131Z,0.49
2023-03-11T07:39:08.995Z,0.54
2023-03-11T07:41:36.555Z,0.59
2023-03-11T07:44:04.578Z,0.61
2023-03-11T07:46:32.302Z,0.65
2023-03-11T07:48:59.997Z,0.69
2023-03-11T07:51:28.099Z,0.73
2023-03-11T07:53:56.109Z,0.78
2023-03-11T07:56:25.386Z,0.81
2023-03-11T07:58:52.992Z,0.85
2023-03-11T08:01:23.253Z,0.88
2023-03-11T08:03:52.965Z,0.89
2023-03-11T08:06:21.310Z,0.90
2023-03-11T08:08:49.010Z,0.94
2023-03-11T08:11:16.910Z,0.99
2023-03-11T08:13:46.380Z,1.03
2023-03-11T08:16:14.488Z,1.06
2023-03-11T08:18:42.429Z,1.09
2023-03-11T08:21:11.108Z,1.15
2023-03-11T08:23:38.599Z,1.20
2023-03-11T08:26:06.484Z,1.23
2023-03-11T08:28:34.178Z,1.27
2023-03-11T08:31:03.034Z,1.31
2023-03-11T08:33:30.587Z,1.34
2023-03-11T08:35:58.151Z,1.34
2023-03-11T08:38:25.720Z,1.38
2023-03-11T08:40:53.358Z,1.42
2023-03-11T08:43:20.952Z,1.46
2023-03-11T08:45:48.443Z,1.52
2023-03-11T08:48:17.289Z,1.56
2023-03-11T08:50:53.728Z,1.63
2023-03-11T08:53:22.311Z,1.68
2023-03-11T08:55:50.414Z,1.73
2023-03-11T08:58:17.937Z,1.76
2023-03-11T09:00:45.542Z,1.80
2023-03-11T09:03:13.432Z,1.86
2023-03-11T09:05:42.358Z,1.91
2023-03-11T09:08:09.850Z,1.99
2023-03-11T09:10:37.299Z,2.02
2023-03-11T09:13:04.776Z,2.07
2023-03-11T09:15:32.262Z,2.11
2023-03-11T09:18:00.279Z,2.15
2023-03-11T09:20:27.753Z,2.20
2023-03-11T09:22:56.713Z,2.27
2023-03-11T09:25:24.216Z,2.31
2023-03-11T09:27:51.764Z,2.35
2023-03-11T09:30:19.502Z,2.41
2023-03-11T09:32:47.058Z,2.46
2023-03-11T09:35:14.631Z,2.53
2023-03-11T09:37:42.130Z,2.59
2023-03-11T09:40:12.231Z,2.64
2023-03-11T09:42:40.254Z,2.68
2023-03-11T09:45:09.503Z,2.71
2023-03-11T09:47:40.907Z,2.75
2023-03-11T09:50:23.328Z,2.79
2023-03-11T09:52:55.856Z,2.82
2023-03-11T09:55:31.166Z,2.89
2023-03-11T09:57:58.935Z,2.95
2023-03-11T10:00:26.418Z,3.01
2023-03-11T10:02:54.001Z,3.05
2023-03-11T10:05:21.931Z,3.10
2023-03-11T10:07:51.471Z,3.15
2023-03-11T10:10:19.082Z,3.17
2023-03-11T10:12:50.068Z,3.19
2023-03-11T10:15:19.039Z,3.23
2023-03-11T10:18:07.579Z,3.28
2023-03-11T10:20:37.007Z,3.35
2023-03-11T10:23:08.485Z,3.42
2023-03-11T10:25:38.999Z,3.46
2023-03-11T10:28:09.909Z,3.55
2023-03-11T10:30:37.801Z,3.66
2023-03-11T10:33:07.178Z,3.66
2023-03-11T10:35:35.684Z,3.66
2023-03-11T10:38:04.858Z,3.63
2023-03-11T10:40:32.932Z,3.62
2023-03-11T10:43:01.128Z,3.61
2023-03-11T10:45:30.316Z,3.58
2023-03-11T10:47:58.283Z,3.56
2023-03-11T10:50:25.772Z,3.56
2023-03-11T10:53:06.456Z,3.55
2023-03-11T10:55:34.000Z,3.54
2023-03-11T10:58:08.261Z,3.55
2023-03-11T11:00:37.132Z,3.58
2023-03-11T11:03:06.640Z,3.59
2023-03-11T11:05:34.336Z,3.61
2023-03-11T11:08:06.297Z,3.63
2023-03-11T11:10:34.169Z,3.64
2023-03-11T11:13:02.650Z,3.69
2023-03-11T11:15:30.891Z,3.74
2023-03-11T11:18:00.612Z,3.82
2023-03-11T11:20:28.471Z,3.89
2023-03-11T11:22:56.350Z,3.95
2023-03-11T11:25:31.461Z,4.03
2023-03-11T11:27:59.847Z,4.07
2023-03-11T11:30:28.014Z,4.07
2023-03-11T11:32:55.787Z,4.09
2023-03-11T11:35:25.424Z,4.12
2023-03-11T11:37:53.522Z,4.16
2023-03-11T11:40:30.519Z,4.20
2023-03-11T11:42:58.754Z,4.27
2023-03-11T11:45:28.857Z,4.34
2023-03-11T11:47:56.845Z,4.36
2023-03-11T11:50:27.879Z,4.36
2023-03-11T11:52:56.648Z,4.35
2023-03-11T11:55:25.465Z,4.31
2023-03-11T11:57:52.984Z,4.26
2023-03-11T12:00:21.745Z,4.26
2023-03-11T12:02:56.544Z,4.30
2023-03-11T12:05:24.944Z,4.42
2023-03-11T12:08:00.115Z,4.49
2023-03-11T12:10:29.181Z,4.51
2023-03-11T12:13:14.945Z,4.50
2023-03-11T12:15:43.289Z,4.42
2023-03-11T12:18:12.217Z,4.38
2023-03-11T12:20:40.989Z,4.37
2023-03-11T12:23:20.097Z,4.49
2023-03-11T12:25:54.548Z,4.65
2023-03-11T12:28:23.296Z,4.77
2023-03-11T12:30:52.633Z,4.76
2023-03-11T12:33:20.884Z,4.73
2023-03-11T12:35:49.383Z,4.79
2023-03-11T12:38:17.870Z,4.85
2023-03-11T12:40:51.039Z,4.92
2023-03-11T12:43:37.186Z,4.96
2023-03-11T12:46:05.039Z,5.00
2023-03-11T12:48:35.995Z,5.01
2023-03-11T12:51:03.586Z,5.03
2023-03-11T12:53:43.595Z,5.03
2023-03-11T12:56:15.207Z,5.05
2023-03-11T12:58:48.588Z,5.06
2023-03-11T13:01:26.988Z,5.10
2023-03-11T13:03:59.044Z,5.16
2023-03-11T13:06:50.663Z,5.27
2023-03-11T13:09:18.271Z,5.39
2023-03-11T13:11:48.099Z,5.48
2023-03-11T13:14:20.876Z,5.53
2023-03-11T13:16:48.432Z,5.56
2023-03-11T13:19:35.383Z,5.59
2023-03-11T13:22:03.254Z,5.58
2023-03-11T13:24:51.083Z,5.55
2023-03-11T13:27:27.635Z,5.53
2023-03-11T13:29:57.259Z,5.50
2023-03-11T13:32:35.666Z,5.48
2023-03-11T13:35:06.654Z,5.51
2023-03-11T13:37:35.987Z,5.56
2023-03-11T13:40:13.972Z,5.59
2023-03-11T13:42:45.681Z,5.63
2023-03-11T13:45:25.416Z,5.67
2023-03-11T13:47:52.916Z,5.70
2023-03-11T13:50:21.804Z,5.73
2023-03-11T13:52:49.551Z,5.80
2023-03-11T13:55:18.719Z,5.84
2023-03-11T13:57:51.809Z,5.89
2023-03-11T14:00:24.029Z,5.95
2023-03-11T14:02:54.171Z,6.02
2023-03-11T14:05:23.646Z,6.09
2023-03-11T14:07:51.191Z,6.17
2023-03-11T14:10:27.345Z,6.20
2023-03-11T14:13:07.101Z,6.25
2023-03-11T14:15:38.591Z,6.32
2023-03-11T14:18:20.836Z,6.38
2023-03-11T14:20:48.563Z,6.42
2023-03-11T14:23:18.130Z,6.47
2023-03-11T14:25:45.624Z,6.51
2023-03-11T14:28:18.724Z,6.59
2023-03-11T14:30:55.856Z,6.63
2023-03-11T14:33:23.594Z,6.66
2023-03-11T14:35:52.958Z,6.67
2023-03-11T14:38:21.435Z,6.68
2023-03-11T14:40:51.511Z,6.71
2023-03-11T14:43:20.888Z,6.75
2023-03-11T14:45:48.447Z,6.76
2023-03-11T14:48:16.571Z,6.75
2023-03-11T14:50:44.433Z,6.73
2023-03-11T14:53:14.951Z,6.69
2023-03-11T14:55:43.390Z,6.66
2023-03-11T14:58:12.421Z,6.59
2023-03-11T15:00:41.638Z,6.58
2023-03-11T15:03:14.433Z,6.60
2023-03-11T15:05:43.691Z,6.60
2023-03-11T15:08:11.162Z,6.55
2023-03-11T15:10:38.661Z,6.49
2023-03-11T15:13:08.315Z,6.45
2023-03-11T15:15:35.829Z,6.38
2023-03-11T15:18:05.441Z,6.34
2023-03-11T15:20:33.729Z,6.33
2023-03-11T15:23:02.101Z,6.28
2023-03-11T15:25:30.604Z,6.24
2023-03-11T15:27:58.092Z,6.19
2023-03-11T15:30:26.659Z,6.10
2023-03-11T15:32:54.316Z,6.00
2023-03-11T15:35:24.081Z,5.91
2023-03-11T15:37:52.293Z,5.84
2023-03-11T15:40:30.048Z,5.78
2023-03-11T15:43:17.354Z,5.71
2023-03-11T15:45:44.979Z,5.66
2023-03-11T15:48:12.908Z,5.61
2023-03-11T15:50:53.310Z,5.56
2023-03-11T15:53:21.785Z,5.51
2023-03-11T15:55:49.350Z,5.47
2023-03-11T15:58:17.478Z,5.44
2023-03-11T16:00:46.928Z,5.42
2023-03-11T16:03:14.465Z,5.38
2023-03-11T16:05:41.970Z,5.35
2023-03-11T16:08:10.896Z,5.33
2023-03-11T16:10:38.588Z,5.30
2023-03-11T16:13:06.231Z,5.27
2023-03-11T16:15:35.330Z,5.26
2023-03-11T16:18:03.442Z,5.24
2023-03-11T16:20:32.112Z,5.23
2023-03-11T16:22:59.765Z,5.21
2023-03-11T16:25:29.302Z,5.17
2023-03-11T16:27:57.028Z,5.15
2023-03-11T16:30:24.878Z,5.13
2023-03-11T16:32:52.531Z,5.09
2023-03-11T16:35:20.143Z,5.07
2023-03-11T16:37:47.671Z,5.03
2023-03-11T16:40:15.822Z,5.02
2023-03-11T16:42:44.852Z,5.00
2023-03-11T16:45:12.557Z,4.97
2023-03-11T16:47:40.063Z,4.93
2023-03-11T16:50:08.179Z,4.90
2023-03-11T16:52:37.354Z,4.86
2023-03-11T16:55:05.282Z,4.82
2023-03-11T16:57:32.850Z,4.80
2023-03-11T17:00:01.885Z,4.75
2023-03-11T17:02:29.369Z,4.72
2023-03-11T17:04:57.046Z,4.71
2023-03-11T17:07:24.930Z,4.67
2023-03-11T17:09:52.443Z,4.64
2023-03-11T17:12:19.911Z,4.61
2023-03-11T17:14:47.532Z,4.57
2023-03-11T17:17:16.415Z,4.55
2023-03-11T17:19:44.446Z,4.50
2023-03-11T17:22:11.996Z,4.46
2023-03-11T17:24:39.612Z,4.44
2023-03-11T17:27:07.168Z,4.41
2023-03-11T17:29:34.868Z,4.38
2023-03-11T17:32:02.478Z,4.34
2023-03-11T17:34:31.368Z,4.31
2023-03-11T17:36:58.919Z,4.27
2023-03-11T17:39:26.549Z,4.24
2023-03-11T17:41:54.083Z,4.20
2023-03-11T17:44:21.552Z,4.16
2023-03-11T17:46:49.118Z,4.13
2023-03-11T17:49:16.782Z,4.09
2023-03-11T17:51:45.695Z,4.07
2023-03-11T17:54:13.223Z,4.02
2023-03-11T17:56:40.728Z,3.98
2023-03-11T17:59:08.203Z,3.95
2023-03-11T18:01:35.757Z,3.91
2023-03-11T18:04:03.357Z,3.87
2023-03-11T18:06:30.946Z,3.84
2023-03-11T18:08:59.938Z,3.80
2023-03-11T18:11:28.112Z,3.76
2023-03-11T18:13:55.614Z,3.71
2023-03-11T18:16:23.768Z,3.67
2023-03-11T18:18:51.274Z,3.63
2023-03-11T18:21:19.409Z,3.59
2023-03-11T18:23:47.062Z,3.55
2023-03-11T18:26:16.535Z,3.50
2023-03-11T18:28:44.041Z,3.46
2023-03-11T18:31:12.166Z,3.43
2023-03-11T18:33:39.931Z,3.39
2023-03-11T18:36:14.766Z,3.33
2023-03-11T18:38:42.279Z,3.29
2023-03-11T18:41:09.957Z,3.25
2023-03-11T18:43:38.822Z,3.22
2023-03-11T18:46:07.911Z,3.20
2023-03-11T18:48:35.453Z,3.16
2023-03-11T18:51:03.060Z,3.12
2023-03-11T18:53:30.560Z,3.10
2023-03-11T18:56:01.116Z,3.05
2023-03-11T18:58:28.845Z,3.01
2023-03-11T19:01:03.688Z,2.98
2023-03-11T19:03:31.315Z,2.96
2023-03-11T19:05:59.568Z,2.92
2023-03-11T19:08:27.618Z,2.88
2023-03-11T19:10:55.075Z,2.83
2023-03-11T19:13:22.564Z,2.79
2023-03-11T19:15:50.058Z,2.75
2023-03-11T19:18:18.978Z,2.73
2023-03-11T19:20:46.442Z,2.70
2023-03-11T19:23:13.893Z,2.66
2023-03-11T19:25:50.619Z,2.65
2023-03-11T19:28:24.586Z,2.62
2023-03-11T19:30:52.623Z,2.60
2023-03-11T19:33:22.201Z,2.58
2023-03-11T19:35:52.431Z,2.54
2023-03-11T19:38:19.952Z,2.52
2023-03-11T19:40:47.632Z,2.49
2023-03-11T19:43:15.178Z,2.49
2023-03-11T19:45:42.668Z,2.47
2023-03-11T19:48:13.074Z,2.46
2023-03-11T19:50:42.140Z,2.44
2023-03-11T19:53:09.651Z,2.42
2023-03-11T19:55:37.126Z,2.42
2023-03-11T19:58:04.570Z,2.42
2023-03-11T20:00:32.121Z,2.42
2023-03-11T20:03:02.206Z,2.41
2023-03-11T20:05:29.686Z,2.42
2023-03-11T20:07:58.584Z,2.41
2023-03-11T20:10:26.100Z,2.39
2023-03-11T20:13:02.236Z,2.38
2023-03-11T20:15:30.375Z,2.36
2023-03-11T20:17:57.914Z,2.34
2023-03-11T20:20:25.579Z,2.34
2023-03-11T20:22:53.150Z,2.34
2023-03-11T20:25:22.118Z,2.35
2023-03-11T20:27:49.720Z,2.34
2023-03-11T20:30:20.113Z,2.34
2023-03-11T20:32:47.809Z,2.33
2023-03-11T20:35:15.584Z,2.32
2023-03-11T20:37:43.189Z,2.30
2023-03-11T20:40:13.053Z,2.28
2023-03-11T20:42:43.043Z,2.26
2023-03-11T20:45:11.124Z,2.24
2023-03-11T20:47:38.684Z,2.21
2023-03-11T20:50:06.591Z,2.19
2023-03-11T20:52:35.810Z,2.17
2023-03-11T20:55:03.366Z,2.14
2023-03-11T20:57:30.930Z,2.11
2023-03-11T20:59:59.793Z,2.09
2023-03-11T21:02:30.636Z,2.06
2023-03-11T21:04:58.345Z,2.04
2023-03-11T21:07:26.034Z,2.00
2023-03-11T21:09:54.900Z,1.96
2023-03-11T21:12:22.628Z,1.93
2023-03-11T21:14:50.335Z,1.91
2023-03-11T21:17:19.378Z,1.88
2023-03-11T21:19:47.103Z,1.85
2023-03-11T21:22:14.693Z,1.82
2023-03-11T21:24:42.326Z,1.79
2023-03-11T21:27:09.899Z,1.77
2023-03-11T21:29:37.680Z,1.74
2023-03-11T21:32:05.555Z,1.70
2023-03-11T21:34:34.495Z,1.68
2023-03-11T21:37:02.005Z,1.66
2023-03-11T21:39:29.525Z,1.65
2023-03-11T21:41:57.236Z,1.62
2023-03-11T21:44:24.753Z,1.59
2023-03-11T21:46:52.510Z,1.57
2023-03-11T21:49:20.138Z,1.56
2023-03-11T21:51:49.045Z,1.54
2023-03-11T21:54:16.968Z,1.53
2023-03-11T21:56:44.636Z,1.50
2023-03-11T21:59:12.183Z,1.49
2023-03-11T22:01:39.844Z,1.47
2023-03-11T22:04:07.582Z,1.46
2023-03-11T22:06:35.142Z,1.46
2023-03-11T22:09:04.271Z,1.45
2023-03-11T22:11:31.890Z,1.44
2023-03-11T22:14:01.016Z,1.44
2023-03-11T22:16:28.650Z,1.44
2023-03-11T22:18:56.326Z,1.44
2023-03-11T22:21:23.948Z,1.41
2023-03-11T22:23:51.486Z,1.41
2023-03-11T22:26:20.334Z,1.41
2023-03-11T22:28:47.926Z,1.40
2023-03-11T22:31:16.771Z,1.37
2023-03-11T22:33:44.319Z,1.37
2023-03-11T22:36:11.957Z,1.36
2023-03-11T22:38:42.042Z,1.35
2023-03-11T22:41:09.717Z,1.34
2023-03-11T22:43:38.998Z,1.34
2023-03-11T22:46:06.782Z,1.34
2023-03-11T22:48:34.478Z,1.34
2023-03-11T22:51:02.050Z,1.34
2023-03-11T22:53:29.645Z,1.32
2023-03-11T22:55:57.179Z,1.32
2023-03-11T22:58:24.635Z,1.31
2023-03-11T23:00:53.596Z,1.31
2023-03-11T23:03:21.241Z,1.32
2023-03-11T23:05:48.825Z,1.31
2023-03-11T23:08:16.805Z,1.30
2023-03-11T23:10:44.857Z,1.30
2023-03-11T23:13:12.646Z,1.30
2023-03-11T23:15:40.725Z,1.31
2023-03-11T23:18:09.788Z,1.31
2023-03-11T23:20:37.593Z,1.31
2023-03-11T23:23:05.280Z,1.31
2023-03-11T23:25:32.867Z,1.30
2023-03-11T23:28:01.770Z,1.30
2023-03-11T23:30:29.265Z,1.31
2023-03-11T23:32:57.288Z,1.29
2023-03-11T23:35:26.161Z,1.29
2023-03-11T23:37:53.710Z,1.28
2023-03-11T23:40:21.303Z,1.28
2023-03-11T23:42:48.819Z,1.28
2023-03-11T23:45:16.337Z,1.28
2023-03-11T23:47:43.834Z,1.28
2023-03-11T23:50:11.782Z,1.26
2023-03-11T23:52:40.793Z,1.25
2023-03-11T23:55:08.808Z,1.26
2023-03-11T23:57:36.322Z,1.25
